Etusivu
METAR-TAF:

METAR-TAF

Lentoasemat :

Öljynporauslautta

Hoorn-a, Alankomaat

Leveyspiiri: 52-55-05N, Pituuspiiri: 4-09-01E, korkeus merenpinnasta: 41 m

Tämänhetkinen sää

Tämä raportti tehtiin 37 minuuttia sitten, kello 17.55 UTC
Tuuli 27 kn etelästä
Lämpötila 9°C
Kosteus 76%
Ilmanpaine 992 hPa
Näkyvyys 10 km tai enemmän
Muutamia pilviä 1300 ft:n korkeudessa
Muutamia pilviä 1500 ft:n korkeudessa, Cumulonimbus.
Hajanaisia pilviä 1900 ft:n korkeudessa
Hajonneita pilviä 2600 ft:n korkeudessa

METAR: EHQE 121755Z AUTO 17027KT 9999 FEW013 FEW015CB SCT019 BKN026 09/05 Q0992 W///H///

Aika: 19:32 (18:32 UTC)


TAF: puuttuu

Säähavainnot ja -ennusteet yli 4000 lentoasemalta (METAR- ja TAF-raportit).

Käytössä olevat sääasemat on merkitty karttaan keltaisilla ja punaisilla pisteillä.

Aseta hiiri pisteen päälle nähdäksesi sääaseman nimen.

Klikkaa sitten nähdäksesi säähavainnot ja -ennusteet.

Kartan vaihtaminen: klikkaa mustalla rastilla varustettuja vihreitä pisteitä, niin voit zoomata sisään; viivalla varustettua vihreää pistettä, niin voit zoomata ulos tai vihreitä nuolia, niin pääset viereisille kartoille.


METAR-TAF: